createdAt,value
2023-04-19T00:00:58.083Z,103072.84
2023-04-19T00:03:33.668Z,103075.47
2023-04-19T00:06:10.978Z,103069.31
2023-04-19T00:35:37.694Z,103066.66
2023-04-19T00:38:14.932Z,103073.59
2023-04-19T00:40:50.242Z,103074.28
2023-04-19T01:12:38.911Z,103078.31
2023-04-19T01:15:10.462Z,103074.66
2023-04-19T01:17:41.827Z,103074.53
2023-04-19T01:20:15.952Z,103068.38
2023-04-19T01:22:52.082Z,103071.00
2023-04-19T01:25:21.985Z,103079.66
2023-04-19T01:34:51.544Z,103082.75
2023-04-19T01:41:43.771Z,103085.25
2023-04-19T02:05:34.469Z,103086.59
2023-04-19T02:08:07.543Z,103083.88
2023-04-19T02:10:37.562Z,103084.63
2023-04-19T02:13:13.833Z,103079.97
2023-04-19T02:15:46.436Z,103084.03
2023-04-19T02:18:23.036Z,103089.94
2023-04-19T02:20:57.647Z,103078.41
2023-04-19T02:23:27.814Z,103081.72
2023-04-19T02:26:16.270Z,103079.00
2023-04-19T02:28:51.864Z,103080.34
2023-04-19T02:31:27.180Z,103087.94
2023-04-19T02:33:59.635Z,103090.31
2023-04-19T09:56:18.982Z,103040.44
2023-04-19T10:33:40.698Z,102982.91
2023-04-19T10:38:23.156Z,102983.66
2023-04-19T10:43:31.436Z,102990.34
2023-04-19T10:50:23.889Z,102970.59
2023-04-19T10:53:00.513Z,102973.13
2023-04-19T10:55:39.396Z,102972.09
2023-04-19T11:16:38.276Z,102964.78
2023-04-19T11:27:49.671Z,102972.94
2023-04-19T11:30:33.466Z,102965.31
2023-04-19T11:33:03.813Z,102973.50
2023-04-19T11:35:36.649Z,102966.31
2023-04-19T11:38:10.526Z,102966.69
2023-04-19T11:40:43.065Z,102956.66
2023-04-19T11:43:12.994Z,102958.31
2023-04-19T11:45:50.050Z,102963.47
2023-04-19T11:48:19.879Z,102952.09
2023-04-19T11:50:50.294Z,102952.97
2023-04-19T11:53:29.885Z,102945.69
2023-04-19T11:56:12.164Z,102936.56
2023-04-19T11:58:48.490Z,102938.78
2023-04-19T12:01:21.183Z,102930.97
2023-04-19T12:03:55.488Z,102924.03
2023-04-19T12:06:32.583Z,102924.13
2023-04-19T12:09:03.116Z,102911.75
2023-04-19T12:11:53.384Z,102916.97
2023-04-19T12:14:26.883Z,102905.06
2023-04-19T12:17:13.336Z,102911.31
2023-04-19T12:19:46.954Z,102921.88
2023-04-19T12:22:20.632Z,102930.16
2023-04-19T12:24:51.121Z,102927.22
2023-04-19T12:27:31.468Z,102912.56
2023-04-19T12:30:03.660Z,102908.41
2023-04-19T12:32:33.464Z,102921.16
2023-04-19T12:35:03.287Z,102903.78
2023-04-19T12:37:36.701Z,102907.31
2023-04-19T12:40:09.604Z,102932.41
2023-04-19T12:42:42.061Z,102897.66
2023-04-19T12:45:17.351Z,102886.22
2023-04-19T12:47:51.433Z,102887.22
2023-04-19T12:50:21.394Z,102884.59
2023-04-19T12:52:54.270Z,102881.84
2023-04-19T12:55:27.384Z,102883.59
2023-04-19T12:58:04.244Z,102869.66
2023-04-19T13:00:37.105Z,102886.03
2023-04-19T13:03:09.812Z,102870.38
2023-04-19T13:05:45.095Z,102886.94
2023-04-19T13:08:28.218Z,102860.84
2023-04-19T13:11:25.320Z,102868.22
2023-04-19T13:14:00.913Z,102876.50
2023-04-19T13:16:30.842Z,102860.56
2023-04-19T13:19:00.799Z,102855.84
2023-04-19T13:21:33.285Z,102843.56
2023-04-19T13:24:03.225Z,102844.56
2023-04-19T13:26:46.961Z,102841.56
2023-04-19T13:29:20.216Z,102830.66
2023-04-19T13:31:50.133Z,102822.19
2023-04-19T13:34:24.116Z,102816.44
2023-04-19T13:37:01.699Z,102815.16
2023-04-19T13:39:33.925Z,102814.16
2023-04-19T13:42:04.565Z,102816.16
2023-04-19T13:44:40.220Z,102818.34
2023-04-19T13:47:10.072Z,102829.38
2023-04-19T13:49:43.291Z,102806.53
2023-04-19T13:52:15.274Z,102806.91
2023-04-19T13:54:45.076Z,102811.53
2023-04-19T13:57:17.563Z,102808.66
2023-04-19T13:59:52.968Z,102804.72
2023-04-19T14:02:27.203Z,102798.53
2023-04-19T14:05:00.141Z,102801.19
2023-04-19T14:07:33.332Z,102800.34
2023-04-19T14:10:03.278Z,102786.81
2023-04-19T14:12:34.535Z,102800.00
2023-04-19T14:15:07.768Z,102784.34
2023-04-19T14:17:37.750Z,102789.19
2023-04-19T14:20:15.779Z,102777.63
2023-04-19T14:22:46.357Z,102779.09
2023-04-19T14:25:18.652Z,102772.53
2023-04-19T14:27:48.506Z,102767.44
2023-04-19T14:30:26.209Z,102751.25
2023-04-19T14:32:58.963Z,102759.78
2023-04-19T14:35:34.538Z,102763.09
2023-04-19T14:38:04.423Z,102769.91
2023-04-19T14:40:40.376Z,102751.06
2023-04-19T14:43:14.069Z,102744.94
2023-04-19T14:45:51.002Z,102745.16
2023-04-19T14:48:22.449Z,102747.97
2023-04-19T14:50:52.509Z,102748.88
2023-04-19T14:53:27.808Z,102747.78
2023-04-19T14:55:57.667Z,102746.69
2023-04-19T14:58:27.506Z,102746.41
2023-04-19T15:01:04.706Z,102754.06
2023-04-19T15:03:40.614Z,102739.59
2023-04-19T15:06:11.058Z,102721.72
2023-04-19T15:08:41.456Z,102726.88
2023-04-19T15:11:13.936Z,102740.06
2023-04-19T15:13:47.218Z,102725.16
2023-04-19T15:19:09.502Z,102732.78
2023-04-19T15:21:41.459Z,102717.25
2023-04-19T15:24:14.834Z,102713.16
2023-04-19T15:26:48.862Z,102711.50
2023-04-19T15:29:33.570Z,102725.81
2023-04-19T15:32:17.361Z,102713.25
2023-04-19T15:34:52.146Z,102711.63
2023-04-19T15:37:34.689Z,102714.34
2023-04-19T15:40:06.404Z,102716.97
2023-04-19T15:42:43.884Z,102700.16
2023-04-19T15:45:16.779Z,102698.72
2023-04-19T15:47:51.942Z,102703.16
2023-04-19T15:50:30.954Z,102704.78
2023-04-19T15:53:10.754Z,102699.25
2023-04-19T15:55:55.342Z,102701.97
2023-04-19T15:58:34.201Z,102706.44
2023-04-19T16:01:04.058Z,102701.97
2023-04-19T16:03:36.627Z,102699.72
2023-04-19T16:06:06.557Z,102704.88
2023-04-19T16:08:36.548Z,102712.31
2023-04-19T16:11:10.679Z,102705.13
2023-04-19T16:13:44.421Z,102693.97
2023-04-19T16:16:19.724Z,102697.34
2023-04-19T16:18:54.592Z,102695.97
2023-04-19T16:21:28.796Z,102696.69
2023-04-19T16:24:01.277Z,102697.97
2023-04-19T16:26:31.310Z,102685.59
2023-04-19T16:29:02.162Z,102689.78
2023-04-19T16:31:36.640Z,102691.81
2023-04-19T16:34:09.318Z,102688.44
2023-04-19T16:36:45.034Z,102688.25
2023-04-19T16:39:17.351Z,102683.91
2023-04-19T16:41:47.431Z,102682.72
2023-04-19T16:44:34.132Z,102681.59
2023-04-19T16:47:14.114Z,102677.06
2023-04-19T16:49:48.125Z,102686.53
2023-04-19T16:52:17.941Z,102689.94
2023-04-19T16:54:47.892Z,102676.78
2023-04-19T16:57:17.875Z,102669.25
2023-04-19T16:59:49.949Z,102674.59
2023-04-19T17:02:22.106Z,102682.44
2023-04-19T17:04:54.830Z,102672.53
2023-04-19T17:07:31.021Z,102678.50
2023-04-19T17:10:00.900Z,102679.16
2023-04-19T17:12:33.796Z,102673.06
2023-04-19T17:15:10.770Z,102672.16
2023-04-19T17:17:45.146Z,102669.34
2023-04-19T17:20:20.508Z,102673.63
2023-04-19T17:22:53.215Z,102668.13
2023-04-19T17:25:29.910Z,102665.44
2023-04-19T17:28:02.751Z,102658.25
2023-04-19T17:30:41.827Z,102666.34
2023-04-19T17:33:12.875Z,102671.41
2023-04-19T17:35:46.614Z,102659.16
2023-04-19T17:38:16.457Z,102654.72
2023-04-19T17:40:46.278Z,102665.03
2023-04-19T17:43:19.136Z,102670.22
2023-04-19T17:45:56.410Z,102656.88
2023-04-19T17:48:26.242Z,102671.13
2023-04-19T17:51:00.807Z,102667.91
2023-04-19T17:53:33.240Z,102656.41
2023-04-19T17:56:03.225Z,102657.94
2023-04-19T17:58:36.286Z,102662.19
2023-04-19T18:01:06.810Z,102662.00
2023-04-19T18:03:36.978Z,102661.00
2023-04-19T18:06:12.184Z,102662.63
2023-04-19T18:08:42.018Z,102670.34
2023-04-19T18:11:13.230Z,102663.56
2023-04-19T18:13:45.224Z,102665.34
2023-04-19T18:16:21.043Z,102661.28
2023-04-19T18:18:50.935Z,102665.34
2023-04-19T18:21:28.438Z,102662.63
2023-04-19T18:24:01.312Z,102669.31
2023-04-19T18:26:40.075Z,102681.03
2023-04-19T18:29:09.950Z,102667.81
2023-04-19T18:31:42.055Z,102666.91
2023-04-19T18:34:19.973Z,102675.22
2023-04-19T18:36:52.470Z,102678.41
2023-04-19T18:39:22.291Z,102689.00
2023-04-19T18:41:52.280Z,102692.44
2023-04-19T18:44:44.119Z,102694.25
2023-04-19T18:47:13.194Z,102683.78
2023-04-19T18:49:52.739Z,102697.16
2023-04-19T18:52:32.025Z,102694.59
2023-04-19T18:55:01.896Z,102691.19
2023-04-19T18:57:34.957Z,102694.53
2023-04-19T19:00:06.557Z,102698.41
2023-04-19T19:02:37.650Z,102714.38
2023-04-19T19:05:10.213Z,102711.31
2023-04-19T19:07:42.877Z,102708.38
2023-04-19T19:10:19.180Z,102706.47
2023-04-19T19:12:51.767Z,102709.41
2023-04-19T19:15:22.007Z,102711.84
2023-04-19T19:17:51.859Z,102724.88
2023-04-19T19:20:22.525Z,102723.97
2023-04-19T19:22:54.927Z,102726.47
2023-04-19T19:25:25.132Z,102721.03
2023-04-19T19:28:07.009Z,102726.09
2023-04-19T19:30:50.622Z,102736.78
2023-04-19T19:33:21.494Z,102721.84
2023-04-19T19:35:51.363Z,102731.72
2023-04-19T19:38:23.804Z,102723.38
2023-04-19T19:41:28.447Z,102719.91
2023-04-19T19:43:43.560Z,102721.13
2023-04-19T19:46:13.939Z,102720.44
2023-04-19T19:48:44.088Z,102712.81
2023-04-19T19:51:44.302Z,102716.59
2023-04-19T19:54:06.465Z,102711.84
2023-04-19T19:56:36.302Z,102716.78
2023-04-19T19:59:07.532Z,102711.41
2023-04-19T20:01:37.323Z,102707.50
2023-04-19T20:04:07.490Z,102716.47
2023-04-19T20:07:25.299Z,102709.78
2023-04-19T20:09:30.214Z,102707.66
2023-04-19T20:12:01.281Z,102711.13
2023-04-19T20:14:31.275Z,102705.47
2023-04-19T20:17:02.859Z,102712.31
2023-04-19T20:19:33.054Z,102711.22
2023-04-19T20:22:05.781Z,102715.38
2023-04-19T20:24:42.503Z,102722.03
2023-04-19T20:27:12.406Z,102719.00
2023-04-19T20:29:43.066Z,102721.22
2023-04-19T20:32:12.914Z,102722.13
2023-04-19T20:34:42.752Z,102717.19
2023-04-19T20:37:12.993Z,102715.72
2023-04-19T20:39:53.727Z,102715.72
2023-04-19T20:42:27.002Z,102720.00
2023-04-19T20:44:56.780Z,102710.41
2023-04-19T20:47:26.985Z,102709.97
2023-04-19T20:49:59.111Z,102712.91
2023-04-19T20:52:28.937Z,102701.19
2023-04-19T20:55:01.356Z,102705.34
2023-04-19T20:57:31.152Z,102704.50
2023-04-19T21:00:01.744Z,102708.16
2023-04-19T21:02:31.733Z,102713.69
2023-04-19T21:05:01.706Z,102706.03
2023-04-19T21:07:31.775Z,102699.97
2023-04-19T21:10:04.605Z,102708.75
2023-04-19T21:12:34.541Z,102700.88
2023-04-19T21:15:15.563Z,102702.31
2023-04-19T21:17:52.727Z,102696.34
2023-04-19T21:20:22.697Z,102700.59
2023-04-19T21:22:52.661Z,102697.00
2023-04-19T21:25:26.061Z,102690.03
2023-04-19T21:28:12.311Z,102692.84
2023-04-19T21:30:44.648Z,102695.91
2023-04-19T21:33:14.587Z,102699.56
2023-04-19T21:35:45.265Z,102688.34
2023-04-19T21:38:15.229Z,102698.53
2023-04-19T21:40:49.176Z,102695.19
2023-04-19T21:43:20.732Z,102688.03
2023-04-19T21:45:50.654Z,102684.59
2023-04-19T21:48:20.486Z,102685.59
2023-04-19T21:51:08.342Z,102680.47
2023-04-19T21:53:59.468Z,102678.94
2023-04-19T22:00:35.364Z,102672.91
2023-04-19T22:14:48.986Z,102674.13
2023-04-19T22:17:21.628Z,102671.81
2023-04-19T22:19:51.730Z,102658.38
2023-04-19T22:22:21.583Z,102666.38
2023-04-19T22:24:56.755Z,102657.28
2023-04-19T22:27:27.616Z,102657.28
2023-04-19T22:30:09.259Z,102652.25
2023-04-19T22:32:54.684Z,102650.63
2023-04-19T22:47:23.349Z,102624.25
2023-04-19T22:50:09.948Z,102623.25
2023-04-19T22:52:39.762Z,102620.13
2023-04-19T22:55:10.402Z,102610.66
2023-04-19T23:00:46.298Z,102613.66
2023-04-19T23:03:16.317Z,102610.13
2023-04-19T23:05:48.810Z,102606.91
2023-04-19T23:08:18.635Z,102600.53
2023-04-19T23:10:51.073Z,102598.03
2023-04-19T23:13:21.201Z,102599.00
2023-04-19T23:15:51.341Z,102592.06
2023-04-19T23:18:26.145Z,102588.94
2023-04-19T23:20:59.725Z,102587.41
2023-04-19T23:23:29.780Z,102588.81
2023-04-19T23:26:04.000Z,102587.22
2023-04-19T23:28:36.219Z,102574.69
2023-04-19T23:31:06.495Z,102576.59
2023-04-19T23:33:38.571Z,102574.69
2023-04-19T23:36:15.880Z,102564.47
2023-04-19T23:38:45.982Z,102557.72
2023-04-19T23:41:15.960Z,102563.56
2023-04-19T23:43:49.605Z,102553.66
2023-04-19T23:46:21.814Z,102559.63
2023-04-19T23:48:51.761Z,102548.41
2023-04-19T23:51:27.599Z,102553.78
2023-04-19T23:53:57.557Z,102541.88
2023-04-19T23:56:27.749Z,102539.25
2023-04-19T23:59:00.124Z,102546.41
